createdAt,value
2019-03-29T00:00:23.882Z,69.39
2019-03-29T00:01:27.481Z,69.42
2019-03-29T00:02:30.985Z,69.40
2019-03-29T00:03:35.019Z,69.52
2019-03-29T00:04:38.557Z,69.60
2019-03-29T00:05:42.077Z,69.59
2019-03-29T00:06:45.590Z,69.63
2019-03-29T00:07:49.098Z,69.61
2019-03-29T00:08:52.522Z,69.76
2019-03-29T00:09:55.972Z,69.89
2019-03-29T00:10:59.402Z,69.68
2019-03-29T00:12:02.902Z,69.67
2019-03-29T00:13:06.404Z,69.68
2019-03-29T00:14:09.832Z,69.56
2019-03-29T00:15:13.320Z,69.59
2019-03-29T00:16:16.777Z,69.65
2019-03-29T00:17:20.217Z,69.89
2019-03-29T00:18:23.702Z,70.06
2019-03-29T00:19:27.817Z,70.02
2019-03-29T00:20:31.273Z,70.02
2019-03-29T00:21:34.710Z,69.92
2019-03-29T00:22:38.141Z,70.03
2019-03-29T00:23:41.571Z,70.08
2019-03-29T00:24:44.998Z,70.04
2019-03-29T00:25:48.457Z,70.12
2019-03-29T00:26:52.564Z,70.29
2019-03-29T00:27:56.663Z,70.29
2019-03-29T00:29:00.094Z,70.27
2019-03-29T00:30:03.864Z,70.24
2019-03-29T00:31:07.322Z,70.28
2019-03-29T00:32:10.750Z,70.73
2019-03-29T00:33:14.191Z,70.74
2019-03-29T00:34:17.697Z,70.88
2019-03-29T00:35:21.193Z,70.97
2019-03-29T00:36:25.307Z,71.03
2019-03-29T00:37:29.362Z,71.08
2019-03-29T00:38:32.803Z,71.17
2019-03-29T00:39:36.234Z,71.00
2019-03-29T00:40:39.671Z,70.81
2019-03-29T00:41:43.131Z,70.96
2019-03-29T00:42:46.581Z,70.89
2019-03-29T00:43:50.078Z,70.92
2019-03-29T00:44:53.511Z,71.02
2019-03-29T00:45:56.951Z,71.27
2019-03-29T00:47:00.397Z,71.62
2019-03-29T00:48:03.966Z,71.65
2019-03-29T00:49:07.399Z,71.76
2019-03-29T00:50:10.985Z,71.91
2019-03-29T00:51:14.438Z,71.82
2019-03-29T00:52:17.867Z,71.70
2019-03-29T00:53:21.293Z,71.57
2019-03-29T00:54:24.728Z,71.70
2019-03-29T00:55:28.161Z,71.88
2019-03-29T00:56:31.677Z,71.99
2019-03-29T00:57:35.117Z,71.87
2019-03-29T00:58:38.550Z,72.08
2019-03-29T00:59:41.991Z,72.04
2019-03-29T01:00:45.435Z,71.92
2019-03-29T01:01:48.874Z,72.35
2019-03-29T01:02:52.299Z,72.42
2019-03-29T01:03:55.805Z,72.42
2019-03-29T01:04:59.249Z,72.35
2019-03-29T01:06:02.675Z,72.42
2019-03-29T01:07:06.202Z,72.93
2019-03-29T01:08:10.801Z,72.93
2019-03-29T01:09:14.294Z,72.71
2019-03-29T01:10:17.788Z,72.81
2019-03-29T01:11:21.223Z,72.75
2019-03-29T01:12:24.682Z,72.70
2019-03-29T01:13:28.110Z,72.64
2019-03-29T01:14:31.678Z,72.55
2019-03-29T01:15:35.912Z,72.55
2019-03-29T01:16:39.392Z,72.95
2019-03-29T01:17:42.846Z,73.12
2019-03-29T01:18:46.279Z,73.18
2019-03-29T01:19:49.710Z,73.25
2019-03-29T01:20:53.210Z,73.42
2019-03-29T01:21:56.659Z,73.57
2019-03-29T01:23:00.084Z,73.49
2019-03-29T01:24:03.587Z,73.54
2019-03-29T01:25:08.330Z,73.44
2019-03-29T01:26:12.122Z,73.44
2019-03-29T01:27:15.567Z,73.58
2019-03-29T01:28:18.998Z,73.62
2019-03-29T01:29:22.427Z,74.23
2019-03-29T01:30:25.856Z,74.23
2019-03-29T01:31:29.287Z,74.43
2019-03-29T01:32:33.058Z,74.04
2019-03-29T01:33:36.537Z,74.01
2019-03-29T01:34:39.983Z,74.01
2019-03-29T01:35:43.482Z,74.41
2019-03-29T01:36:46.940Z,74.47
2019-03-29T01:37:50.366Z,74.58
2019-03-29T01:38:53.798Z,74.46
2019-03-29T01:39:57.360Z,74.46
2019-03-29T01:41:01.136Z,74.37
2019-03-29T01:42:04.820Z,74.37
2019-03-29T01:43:08.345Z,74.48
2019-03-29T01:44:11.752Z,74.41
2019-03-29T01:45:15.252Z,74.38
2019-03-29T01:46:18.695Z,74.47
2019-03-29T01:47:22.133Z,74.50
2019-03-29T01:48:25.569Z,74.52
2019-03-29T01:49:28.996Z,74.63
2019-03-29T01:50:32.426Z,74.80
2019-03-29T01:51:35.953Z,74.80
2019-03-29T01:52:39.467Z,75.02
2019-03-29T01:53:42.941Z,75.08
2019-03-29T01:54:46.444Z,75.14
2019-03-29T01:55:49.874Z,75.18
2019-03-29T01:56:53.378Z,75.24
2019-03-29T01:57:56.823Z,75.23
2019-03-29T01:59:00.253Z,75.20
2019-03-29T02:00:03.820Z,75.19
2019-03-29T02:01:07.242Z,75.39
2019-03-29T02:02:10.679Z,75.41
2019-03-29T02:03:14.189Z,75.41
2019-03-29T02:04:17.625Z,75.50
2019-03-29T02:05:21.055Z,75.37
2019-03-29T02:06:24.525Z,75.37
2019-03-29T02:07:27.966Z,75.16
2019-03-29T02:08:36.040Z,75.29
2019-03-29T02:09:36.649Z,75.42
2019-03-29T02:10:40.076Z,75.40
2019-03-29T02:11:43.495Z,75.46
2019-03-29T02:12:46.923Z,75.42
2019-03-29T02:13:51.221Z,75.42
2019-03-29T02:14:54.697Z,75.26
2019-03-29T02:15:58.136Z,75.08
2019-03-29T02:17:01.567Z,74.97
2019-03-29T02:18:05.064Z,75.09
2019-03-29T02:19:08.519Z,75.28
2019-03-29T02:20:12.406Z,75.46
2019-03-29T02:21:16.923Z,75.46
2019-03-29T02:22:20.393Z,75.67
2019-03-29T02:23:23.825Z,75.79
2019-03-29T02:24:27.292Z,76.28
2019-03-29T02:25:30.754Z,76.28
2019-03-29T02:26:34.870Z,76.44
2019-03-29T02:27:38.460Z,76.28
2019-03-29T02:28:41.894Z,76.51
2019-03-29T02:29:45.345Z,76.51
2019-03-29T02:30:48.800Z,76.24
2019-03-29T02:31:52.246Z,76.07
2019-03-29T02:32:55.662Z,76.25
2019-03-29T02:33:59.098Z,76.29
2019-03-29T02:35:02.875Z,76.33
2019-03-29T02:36:06.772Z,76.36
2019-03-29T02:37:10.522Z,76.66
2019-03-29T02:38:13.949Z,76.60
2019-03-29T02:39:17.465Z,76.47
2019-03-29T02:40:22.703Z,76.34
2019-03-29T02:41:26.210Z,76.57
2019-03-29T02:42:29.653Z,76.85
2019-03-29T02:43:33.083Z,76.85
2019-03-29T02:44:36.514Z,77.19
2019-03-29T02:45:39.971Z,77.19
2019-03-29T02:46:43.476Z,76.99
2019-03-29T02:47:48.738Z,76.88
2019-03-29T02:48:52.233Z,76.84
2019-03-29T02:49:55.656Z,76.85
2019-03-29T02:50:59.107Z,76.85
2019-03-29T02:52:02.741Z,77.00
2019-03-29T02:53:06.240Z,76.99
2019-03-29T02:54:09.670Z,77.07
2019-03-29T02:55:13.179Z,77.03
2019-03-29T02:56:16.708Z,77.00
2019-03-29T02:57:20.165Z,76.95
2019-03-29T02:58:23.600Z,76.85
2019-03-29T02:59:27.103Z,76.86
2019-03-29T03:00:30.529Z,76.74
2019-03-29T03:01:33.989Z,76.69
2019-03-29T03:02:37.489Z,76.59
2019-03-29T03:03:40.986Z,76.68
2019-03-29T03:04:44.427Z,76.65
2019-03-29T03:05:47.870Z,76.59
2019-03-29T03:06:51.315Z,76.72
2019-03-29T03:07:54.773Z,76.74
2019-03-29T03:09:12.138Z,76.73
2019-03-29T03:10:05.096Z,76.81
2019-03-29T03:11:08.667Z,77.03
2019-03-29T03:12:12.112Z,77.03
2019-03-29T03:13:15.551Z,77.18
2019-03-29T03:14:18.979Z,77.38
2019-03-29T03:15:22.412Z,77.51
2019-03-29T03:16:25.921Z,77.62
2019-03-29T03:17:29.371Z,77.59
2019-03-29T03:18:32.822Z,77.36
2019-03-29T03:19:36.268Z,77.50
2019-03-29T03:20:39.704Z,77.50
2019-03-29T03:21:43.139Z,77.47
2019-03-29T03:22:46.665Z,77.53
2019-03-29T03:23:50.108Z,77.64
2019-03-29T03:24:53.518Z,77.74
2019-03-29T03:25:57.028Z,77.79
2019-03-29T03:27:00.530Z,77.65
2019-03-29T03:28:03.984Z,77.48
2019-03-29T03:29:07.410Z,77.56
2019-03-29T03:30:12.140Z,77.70
2019-03-29T03:31:15.687Z,77.82
2019-03-29T03:32:19.119Z,77.86
2019-03-29T03:33:22.633Z,77.89
2019-03-29T03:34:26.130Z,77.80
2019-03-29T03:35:29.577Z,77.67
2019-03-29T03:36:33.148Z,77.62
2019-03-29T03:37:36.753Z,77.76
2019-03-29T03:38:40.273Z,77.80
2019-03-29T03:39:43.702Z,77.97
2019-03-29T03:40:47.153Z,78.07
2019-03-29T03:41:50.631Z,78.11
2019-03-29T03:42:54.230Z,78.09
2019-03-29T03:43:57.694Z,78.09
2019-03-29T03:45:01.184Z,78.20
2019-03-29T03:46:04.665Z,78.39
2019-03-29T03:47:08.093Z,78.52
2019-03-29T03:48:11.608Z,78.69
2019-03-29T03:49:15.130Z,78.79
2019-03-29T03:50:27.305Z,78.75
2019-03-29T03:51:30.801Z,78.74
2019-03-29T03:52:34.300Z,78.67
2019-03-29T03:53:37.989Z,78.68
2019-03-29T03:54:42.062Z,78.71
2019-03-29T03:55:45.566Z,78.75
2019-03-29T03:56:51.157Z,78.89
2019-03-29T03:57:57.759Z,79.06
2019-03-29T03:59:00.252Z,79.14
2019-03-29T04:00:05.860Z,79.11
2019-03-29T04:01:09.364Z,79.00
2019-03-29T04:02:12.870Z,79.01
2019-03-29T04:03:16.299Z,79.02
2019-03-29T04:04:19.765Z,78.96
2019-03-29T04:05:23.203Z,78.96
2019-03-29T04:06:26.635Z,79.02
2019-03-29T04:07:30.068Z,79.01
2019-03-29T04:08:33.577Z,78.90
2019-03-29T04:09:49.329Z,78.96
2019-03-29T04:10:42.454Z,78.98
2019-03-29T04:11:45.860Z,78.95
2019-03-29T04:12:49.292Z,79.02
2019-03-29T04:13:52.742Z,78.98
2019-03-29T04:14:56.182Z,78.84
2019-03-29T04:15:59.684Z,78.67
2019-03-29T04:17:03.184Z,78.65
2019-03-29T04:18:06.703Z,78.76
2019-03-29T04:19:10.140Z,78.92
2019-03-29T04:20:13.712Z,79.02
2019-03-29T04:21:17.227Z,79.03
2019-03-29T04:22:20.673Z,78.96
2019-03-29T04:23:24.170Z,78.95
2019-03-29T04:24:27.614Z,79.04
2019-03-29T04:25:31.193Z,79.09
2019-03-29T04:26:34.689Z,79.02
2019-03-29T04:27:38.123Z,79.04
2019-03-29T04:28:41.557Z,79.15
2019-03-29T04:29:45.028Z,79.21
2019-03-29T04:30:48.477Z,79.27
2019-03-29T04:31:51.973Z,79.33
2019-03-29T04:32:55.478Z,79.30
2019-03-29T04:33:58.904Z,79.12
2019-03-29T04:35:02.362Z,79.04
2019-03-29T04:36:06.147Z,79.03
2019-03-29T04:37:09.568Z,78.96
2019-03-29T04:38:13.071Z,78.86
2019-03-29T04:39:16.722Z,78.66
2019-03-29T04:40:20.200Z,78.59
2019-03-29T04:41:23.629Z,78.71
2019-03-29T04:42:27.065Z,78.77
2019-03-29T04:43:30.571Z,78.84
2019-03-29T04:44:34.023Z,78.88
2019-03-29T04:45:37.529Z,78.99
2019-03-29T04:46:40.963Z,79.21
2019-03-29T04:47:44.399Z,79.26
2019-03-29T04:48:47.833Z,79.15
2019-03-29T04:49:51.354Z,78.99
2019-03-29T04:50:54.852Z,78.93
2019-03-29T04:51:58.346Z,78.97
2019-03-29T04:53:01.789Z,79.04
2019-03-29T04:54:05.289Z,79.07
2019-03-29T04:55:08.885Z,78.91
2019-03-29T04:56:12.310Z,78.83
2019-03-29T04:57:15.806Z,78.77
2019-03-29T04:58:19.313Z,78.94
2019-03-29T04:59:22.757Z,79.13
2019-03-29T05:00:26.202Z,79.19
2019-03-29T05:01:29.635Z,79.21
2019-03-29T05:02:33.104Z,79.28
2019-03-29T05:03:36.583Z,79.29
2019-03-29T05:04:40.128Z,79.12
2019-03-29T05:05:43.700Z,79.10
2019-03-29T05:06:47.143Z,79.11
2019-03-29T05:07:50.576Z,79.04
2019-03-29T05:08:53.995Z,79.10
2019-03-29T05:09:57.444Z,79.04
2019-03-29T05:11:00.872Z,78.91
2019-03-29T05:12:04.382Z,78.97
2019-03-29T05:13:07.812Z,79.08
2019-03-29T05:14:11.263Z,79.30
2019-03-29T05:15:14.722Z,79.43
2019-03-29T05:16:18.157Z,79.69
2019-03-29T05:17:21.598Z,79.70
2019-03-29T05:18:25.065Z,79.59
2019-03-29T05:19:28.500Z,79.51
2019-03-29T05:20:31.955Z,79.60
2019-03-29T05:21:35.382Z,79.71
2019-03-29T05:22:38.817Z,79.77
2019-03-29T05:23:42.354Z,79.70
2019-03-29T05:24:45.854Z,79.78
2019-03-29T05:25:49.312Z,79.92
2019-03-29T05:26:52.752Z,79.98
2019-03-29T05:27:56.241Z,79.96
2019-03-29T05:28:59.678Z,79.89
2019-03-29T05:30:03.141Z,79.82
2019-03-29T05:31:06.575Z,79.73
2019-03-29T05:32:10.006Z,79.67
2019-03-29T05:33:13.437Z,79.54
2019-03-29T05:34:16.867Z,79.42
2019-03-29T05:35:20.317Z,79.39
2019-03-29T05:36:23.816Z,79.43
2019-03-29T05:37:27.238Z,79.50
2019-03-29T05:38:30.684Z,79.48
2019-03-29T05:39:34.111Z,79.34
2019-03-29T05:40:37.563Z,79.36
2019-03-29T05:41:40.997Z,79.52
2019-03-29T05:42:44.511Z,79.57
2019-03-29T05:43:48.007Z,79.51
2019-03-29T05:44:51.434Z,79.51
2019-03-29T05:45:54.877Z,79.40
2019-03-29T05:46:58.314Z,79.30
2019-03-29T05:48:01.823Z,79.30
2019-03-29T05:49:05.267Z,79.25
2019-03-29T05:50:08.856Z,79.13
2019-03-29T05:51:12.285Z,79.00
2019-03-29T05:52:15.718Z,78.79
2019-03-29T05:53:19.376Z,78.61
2019-03-29T05:54:22.802Z,78.59
2019-03-29T05:55:32.639Z,78.56
2019-03-29T05:56:31.438Z,78.45
2019-03-29T05:57:34.907Z,78.39
2019-03-29T05:58:38.342Z,78.40
2019-03-29T05:59:41.845Z,78.51
2019-03-29T06:00:45.370Z,78.55
2019-03-29T06:01:48.929Z,78.53
2019-03-29T06:02:52.362Z,78.55
2019-03-29T06:03:55.926Z,78.56
2019-03-29T06:04:59.377Z,78.57
2019-03-29T06:06:02.836Z,78.58
2019-03-29T06:07:06.266Z,78.54
2019-03-29T06:08:09.793Z,78.37
2019-03-29T06:09:13.218Z,78.25
2019-03-29T06:10:16.718Z,78.23
2019-03-29T06:11:20.171Z,78.30
2019-03-29T06:12:23.608Z,78.18
2019-03-29T06:13:27.123Z,78.16
2019-03-29T06:14:30.556Z,78.18
2019-03-29T06:15:34.006Z,78.18
2019-03-29T06:16:39.151Z,78.14
2019-03-29T06:17:48.522Z,78.22
2019-03-29T06:18:47.854Z,78.36
2019-03-29T06:19:51.287Z,78.37
2019-03-29T06:20:54.723Z,78.24
2019-03-29T06:21:58.157Z,78.22
2019-03-29T06:23:01.591Z,78.17
2019-03-29T06:24:05.119Z,78.05
2019-03-29T06:25:08.672Z,78.01
2019-03-29T06:26:12.125Z,77.89
2019-03-29T06:27:15.571Z,77.76
2019-03-29T06:28:19.005Z,77.63
2019-03-29T06:29:22.564Z,77.54
2019-03-29T06:30:29.849Z,77.51
2019-03-29T06:31:33.313Z,77.45
2019-03-29T06:32:36.801Z,77.41
2019-03-29T06:33:40.321Z,77.32
2019-03-29T06:34:43.867Z,77.40
2019-03-29T06:35:50.141Z,77.43
2019-03-29T06:36:55.029Z,77.39
2019-03-29T06:37:58.906Z,77.39
2019-03-29T06:39:04.252Z,77.33
2019-03-29T06:40:10.162Z,77.19
2019-03-29T06:41:13.684Z,77.07
2019-03-29T06:42:17.114Z,77.02
2019-03-29T06:43:20.550Z,77.01
2019-03-29T06:44:23.986Z,77.11
2019-03-29T06:45:27.425Z,77.04
2019-03-29T06:46:30.949Z,76.93
2019-03-29T06:47:34.381Z,76.65
2019-03-29T06:48:37.821Z,76.39
2019-03-29T06:49:41.322Z,76.27
2019-03-29T06:50:44.951Z,76.24
2019-03-29T06:51:48.358Z,76.26
2019-03-29T06:52:51.791Z,76.29
2019-03-29T06:53:55.303Z,76.30
2019-03-29T06:54:58.751Z,76.63
2019-03-29T06:56:02.253Z,76.83
2019-03-29T06:57:05.709Z,76.98
2019-03-29T06:58:09.141Z,76.73
2019-03-29T06:59:12.574Z,76.24
2019-03-29T07:00:16.643Z,76.02
2019-03-29T07:01:20.098Z,75.86
2019-03-29T07:02:23.634Z,75.86
2019-03-29T07:03:27.221Z,75.76
2019-03-29T07:04:30.661Z,75.85
2019-03-29T07:05:34.088Z,75.93
2019-03-29T07:06:37.541Z,75.93
2019-03-29T07:07:44.339Z,75.93
2019-03-29T07:08:46.138Z,75.90
2019-03-29T07:09:49.566Z,75.91
2019-03-29T07:10:52.999Z,75.98
2019-03-29T07:11:56.524Z,76.01
2019-03-29T07:12:59.993Z,75.95
2019-03-29T07:14:03.558Z,75.85
2019-03-29T07:15:07.329Z,75.72
2019-03-29T07:16:10.766Z,75.67
2019-03-29T07:17:14.290Z,75.56
2019-03-29T07:18:17.728Z,75.52
2019-03-29T07:19:21.162Z,75.55
2019-03-29T07:20:24.590Z,75.49
2019-03-29T07:21:28.019Z,75.39
2019-03-29T07:22:34.544Z,75.39
2019-03-29T07:23:36.687Z,75.16
2019-03-29T07:24:40.127Z,75.09
2019-03-29T07:25:43.563Z,74.95
2019-03-29T07:26:47.000Z,74.88
2019-03-29T07:27:52.325Z,74.92
2019-03-29T07:28:55.736Z,74.82
2019-03-29T07:29:59.173Z,74.61
2019-03-29T07:31:02.599Z,74.38
2019-03-29T07:32:06.028Z,74.39
2019-03-29T07:33:09.477Z,74.45
2019-03-29T07:34:12.903Z,74.39
2019-03-29T07:35:16.405Z,74.45
2019-03-29T07:36:19.916Z,74.56
2019-03-29T07:37:23.346Z,74.59
2019-03-29T07:38:26.799Z,74.59
2019-03-29T07:39:30.328Z,74.67
2019-03-29T07:40:33.762Z,74.81
2019-03-29T07:41:37.258Z,74.80
2019-03-29T07:42:40.713Z,74.57
2019-03-29T07:43:44.190Z,74.57
2019-03-29T07:44:47.683Z,74.58
2019-03-29T07:45:51.118Z,74.33
2019-03-29T07:46:54.696Z,74.19
2019-03-29T07:47:58.226Z,74.32
2019-03-29T07:49:01.689Z,74.24
2019-03-29T07:50:07.030Z,74.33
2019-03-29T07:51:10.892Z,74.40
2019-03-29T07:52:14.302Z,74.46
2019-03-29T07:53:17.725Z,74.38
2019-03-29T07:54:21.171Z,74.07
2019-03-29T07:55:24.640Z,73.86
2019-03-29T07:56:28.067Z,73.66
2019-03-29T07:57:31.488Z,73.45
2019-03-29T07:58:34.981Z,73.53
2019-03-29T07:59:38.451Z,73.53
2019-03-29T08:00:42.518Z,73.66
2019-03-29T08:01:45.918Z,73.61
2019-03-29T08:02:49.345Z,73.54
2019-03-29T08:03:53.361Z,73.61
2019-03-29T08:04:57.074Z,73.67
2019-03-29T08:06:00.502Z,73.67
2019-03-29T08:07:03.941Z,73.04
2019-03-29T08:08:07.378Z,73.14
2019-03-29T08:09:21.668Z,72.80
2019-03-29T08:10:25.783Z,72.80
2019-03-29T08:11:26.247Z,72.65
2019-03-29T08:12:26.547Z,72.64
2019-03-29T08:13:30.041Z,72.34
2019-03-29T08:14:33.511Z,72.26
2019-03-29T08:15:36.959Z,72.26
2019-03-29T08:16:40.469Z,72.37
2019-03-29T08:17:43.899Z,72.20
2019-03-29T08:18:47.338Z,72.15
2019-03-29T08:20:09.396Z,71.67
2019-03-29T08:20:55.943Z,71.41
2019-03-29T08:21:59.383Z,71.39
2019-03-29T08:23:02.825Z,71.32
2019-03-29T08:24:06.255Z,70.83
2019-03-29T08:25:09.843Z,70.83
2019-03-29T08:26:13.340Z,70.81
2019-03-29T08:27:16.769Z,70.70
2019-03-29T08:28:20.202Z,70.20
2019-03-29T08:29:23.698Z,70.12
2019-03-29T08:30:27.166Z,69.99
2019-03-29T08:31:30.663Z,69.89
2019-03-29T08:32:34.090Z,69.42
2019-03-29T08:33:37.519Z,69.42
2019-03-29T08:34:41.019Z,69.50
2019-03-29T08:35:44.475Z,69.41
2019-03-29T08:36:47.898Z,69.40
2019-03-29T08:37:51.332Z,69.19
2019-03-29T08:38:54.758Z,69.11
2019-03-29T08:39:58.197Z,69.11
2019-03-29T08:41:01.642Z,69.19
2019-03-29T08:42:05.140Z,69.14
2019-03-29T08:43:08.524Z,69.14
2019-03-29T08:44:12.092Z,68.12
2019-03-29T08:45:15.750Z,67.76
2019-03-29T08:46:19.337Z,68.01
2019-03-29T08:47:22.770Z,67.80
2019-03-29T08:48:26.273Z,67.73
2019-03-29T08:49:29.713Z,67.83
2019-03-29T08:50:33.234Z,68.00
2019-03-29T08:51:36.735Z,67.65
2019-03-29T08:52:40.240Z,67.46
2019-03-29T08:53:43.755Z,67.42
2019-03-29T08:54:47.188Z,67.22
2019-03-29T08:55:50.631Z,67.05
2019-03-29T08:56:54.066Z,66.53
2019-03-29T08:57:57.499Z,66.42
2019-03-29T08:59:00.925Z,66.19
2019-03-29T09:00:06.859Z,65.75
2019-03-29T09:01:10.515Z,65.83
2019-03-29T09:02:14.088Z,65.94
2019-03-29T09:03:17.589Z,65.16
2019-03-29T09:04:21.815Z,64.90
2019-03-29T09:05:25.440Z,65.08
2019-03-29T09:06:30.320Z,64.92
2019-03-29T09:07:44.436Z,64.93
2019-03-29T09:08:39.497Z,64.85
2019-03-29T09:09:46.257Z,64.97
2019-03-29T09:10:48.221Z,64.95
2019-03-29T09:11:51.817Z,64.34
2019-03-29T09:12:55.337Z,64.06
2019-03-29T09:13:58.750Z,64.36
2019-03-29T09:15:04.105Z,64.80
2019-03-29T09:16:07.482Z,64.67
2019-03-29T09:17:11.001Z,64.20
2019-03-29T09:18:14.428Z,63.86
2019-03-29T09:19:17.860Z,63.73
2019-03-29T09:20:21.298Z,63.93
2019-03-29T09:21:24.747Z,64.17
2019-03-29T09:22:28.182Z,64.24
2019-03-29T09:23:31.723Z,64.06
2019-03-29T09:24:35.230Z,63.39
2019-03-29T09:25:40.440Z,63.28
2019-03-29T09:26:43.850Z,62.99
2019-03-29T09:27:47.349Z,63.27
2019-03-29T09:28:50.804Z,63.31
2019-03-29T09:29:54.260Z,63.41
2019-03-29T09:30:57.711Z,63.55
2019-03-29T09:32:01.228Z,63.62
2019-03-29T09:33:04.800Z,63.55
2019-03-29T09:34:08.370Z,63.54
2019-03-29T09:35:12.004Z,63.08
2019-03-29T09:36:15.627Z,62.65
2019-03-29T09:37:19.114Z,62.57
2019-03-29T09:38:22.558Z,62.63
2019-03-29T09:39:26.002Z,61.79
2019-03-29T09:40:29.598Z,61.71
2019-03-29T09:41:33.092Z,61.49
2019-03-29T09:42:36.605Z,61.07
2019-03-29T09:43:40.044Z,60.91
2019-03-29T09:44:43.493Z,60.63
2019-03-29T09:45:46.932Z,60.07
2019-03-29T09:46:50.437Z,59.76
2019-03-29T09:47:55.925Z,60.08
2019-03-29T09:48:59.233Z,59.56
2019-03-29T09:50:02.995Z,60.04
2019-03-29T09:51:09.862Z,59.67
2019-03-29T09:52:13.294Z,59.55
2019-03-29T09:53:16.734Z,59.17
2019-03-29T09:54:20.648Z,59.08
2019-03-29T09:55:24.128Z,58.99
2019-03-29T09:56:38.659Z,59.16
2019-03-29T09:57:37.275Z,59.01
2019-03-29T09:58:38.878Z,58.90
2019-03-29T09:59:42.312Z,58.95
2019-03-29T10:00:45.787Z,59.08
2019-03-29T10:01:49.321Z,59.21
2019-03-29T10:02:52.764Z,58.66
2019-03-29T10:03:56.291Z,58.31
2019-03-29T10:04:59.782Z,57.67
2019-03-29T10:06:03.446Z,57.73
2019-03-29T10:07:06.983Z,57.46
2019-03-29T10:08:10.449Z,57.54
2019-03-29T10:09:13.898Z,57.70
2019-03-29T10:10:17.424Z,57.10
2019-03-29T10:11:22.235Z,56.88
2019-03-29T10:12:25.775Z,56.86
2019-03-29T10:13:29.295Z,56.79
2019-03-29T10:14:33.629Z,56.78
2019-03-29T10:15:37.303Z,56.24
2019-03-29T10:16:40.725Z,56.17
2019-03-29T10:17:44.308Z,55.53
2019-03-29T10:18:47.699Z,55.75
2019-03-29T10:19:51.132Z,56.19
2019-03-29T10:20:54.588Z,55.34
2019-03-29T10:21:58.055Z,55.04
2019-03-29T10:23:01.570Z,55.38
2019-03-29T10:24:05.082Z,55.26
2019-03-29T10:25:19.121Z,55.44
2019-03-29T10:26:13.927Z,55.30
2019-03-29T10:27:18.995Z,55.04
2019-03-29T10:28:22.772Z,55.08
2019-03-29T10:29:26.221Z,55.55
2019-03-29T10:30:37.690Z,55.67
2019-03-29T10:31:41.196Z,55.29
2019-03-29T10:32:44.730Z,55.07
2019-03-29T10:33:49.237Z,54.20
2019-03-29T10:34:52.893Z,53.79
2019-03-29T10:35:56.478Z,53.85
2019-03-29T10:36:59.919Z,53.68
2019-03-29T10:38:03.443Z,54.22
2019-03-29T10:39:09.951Z,54.06
2019-03-29T10:40:13.537Z,53.04
2019-03-29T10:41:16.969Z,52.45
2019-03-29T10:42:20.485Z,52.53
2019-03-29T10:43:23.942Z,52.86
2019-03-29T10:44:27.476Z,52.91
2019-03-29T10:45:30.912Z,52.60
2019-03-29T10:46:34.438Z,52.26
2019-03-29T10:47:43.616Z,52.39
2019-03-29T10:48:43.164Z,52.63
2019-03-29T10:49:46.696Z,52.98
2019-03-29T10:50:50.152Z,52.64
2019-03-29T10:51:53.587Z,52.55
2019-03-29T10:52:57.157Z,51.78
2019-03-29T10:54:00.684Z,52.26
2019-03-29T10:55:04.684Z,52.20
2019-03-29T10:56:08.222Z,52.13
2019-03-29T10:57:11.640Z,52.49
2019-03-29T10:58:15.139Z,51.99
2019-03-29T10:59:27.184Z,52.14
2019-03-29T11:00:38.491Z,50.92
2019-03-29T11:01:41.926Z,50.32
2019-03-29T11:02:45.354Z,49.70
2019-03-29T11:03:48.806Z,50.12
2019-03-29T11:04:52.290Z,50.00
2019-03-29T11:05:55.787Z,50.13
2019-03-29T11:06:59.290Z,50.04
2019-03-29T11:08:02.883Z,50.61
2019-03-29T11:09:07.857Z,49.97
2019-03-29T11:10:17.054Z,50.18
2019-03-29T11:11:20.570Z,49.74
2019-03-29T11:12:24.072Z,49.58
2019-03-29T11:13:27.647Z,49.79
2019-03-29T11:14:31.224Z,49.21
2019-03-29T11:15:35.041Z,48.65
2019-03-29T11:16:38.579Z,49.04
2019-03-29T11:17:42.014Z,49.31
2019-03-29T11:18:45.884Z,49.33
2019-03-29T11:19:49.479Z,48.79
2019-03-29T11:20:53.101Z,48.78
2019-03-29T11:21:56.576Z,48.41
2019-03-29T11:23:00.156Z,47.51
2019-03-29T11:24:03.695Z,47.73
2019-03-29T11:25:07.247Z,47.77
2019-03-29T11:26:10.720Z,47.52
2019-03-29T11:27:14.165Z,47.53
2019-03-29T11:28:17.755Z,47.38
2019-03-29T11:29:21.270Z,47.47
2019-03-29T11:30:24.759Z,47.05
2019-03-29T11:31:28.369Z,47.39
2019-03-29T11:32:31.853Z,47.28
2019-03-29T11:33:35.362Z,47.07
2019-03-29T11:34:38.857Z,47.61
2019-03-29T11:35:42.286Z,47.43
2019-03-29T11:36:45.737Z,47.00
2019-03-29T11:37:49.201Z,46.78
2019-03-29T11:38:52.644Z,46.60
2019-03-29T11:39:56.072Z,46.28
2019-03-29T11:40:59.575Z,46.47
2019-03-29T11:42:03.633Z,46.66
2019-03-29T11:43:07.173Z,45.38
2019-03-29T11:44:10.768Z,45.36
2019-03-29T11:45:14.263Z,44.84
2019-03-29T11:46:17.803Z,44.50
2019-03-29T11:47:21.311Z,43.96
2019-03-29T11:48:24.749Z,43.35
2019-03-29T11:49:28.183Z,43.41
2019-03-29T11:50:31.692Z,43.18
2019-03-29T11:51:35.203Z,43.74
2019-03-29T11:52:38.809Z,42.93
2019-03-29T11:53:42.313Z,43.57
2019-03-29T11:54:45.775Z,42.85
2019-03-29T11:55:49.209Z,43.13
2019-03-29T11:56:52.651Z,43.57
2019-03-29T11:57:56.132Z,42.95
2019-03-29T11:58:59.699Z,41.68
2019-03-29T12:00:03.372Z,42.36
2019-03-29T12:01:06.805Z,42.43
2019-03-29T12:02:10.428Z,42.35
2019-03-29T12:03:14.503Z,41.47
2019-03-29T12:04:18.022Z,41.97
2019-03-29T12:05:21.460Z,40.75
2019-03-29T12:06:24.983Z,41.29
2019-03-29T12:07:28.507Z,41.29
2019-03-29T12:08:31.965Z,40.92
2019-03-29T12:09:35.403Z,40.80
2019-03-29T12:10:38.989Z,41.09
2019-03-29T12:11:42.414Z,40.98
2019-03-29T12:12:46.030Z,41.03
2019-03-29T12:13:49.464Z,41.39
2019-03-29T12:14:52.973Z,40.33
2019-03-29T12:15:56.481Z,40.82
2019-03-29T12:17:00.025Z,39.19
2019-03-29T12:18:03.549Z,38.43
2019-03-29T12:19:07.142Z,38.16
2019-03-29T12:20:10.643Z,38.21
2019-03-29T12:21:14.151Z,37.47
2019-03-29T12:22:17.586Z,36.96
2019-03-29T12:23:21.043Z,36.57
2019-03-29T12:24:24.550Z,36.48
2019-03-29T12:25:28.065Z,35.72
2019-03-29T12:26:31.502Z,36.01
2019-03-29T12:27:34.956Z,36.41
2019-03-29T12:28:38.403Z,37.13
2019-03-29T12:29:41.851Z,37.68
2019-03-29T12:30:45.920Z,36.90
2019-03-29T12:31:49.355Z,37.10
2019-03-29T12:32:52.804Z,37.58
2019-03-29T12:33:56.239Z,36.51
2019-03-29T12:34:59.679Z,37.09
2019-03-29T12:36:03.185Z,36.53
2019-03-29T12:37:06.624Z,35.63
2019-03-29T12:38:10.185Z,34.39
2019-03-29T12:39:13.597Z,34.32
2019-03-29T12:40:17.099Z,33.81
2019-03-29T12:41:20.569Z,33.63
2019-03-29T12:42:24.089Z,31.36
2019-03-29T12:43:27.552Z,32.07
2019-03-29T12:44:31.101Z,32.11
2019-03-29T12:45:34.630Z,30.50
2019-03-29T12:46:38.147Z,30.28
2019-03-29T12:47:41.663Z,30.55
2019-03-29T12:48:45.204Z,30.38
2019-03-29T12:49:48.656Z,28.64
2019-03-29T12:50:52.307Z,28.94
2019-03-29T12:51:55.741Z,28.89
2019-03-29T12:52:59.179Z,29.04
2019-03-29T12:54:02.699Z,27.69
2019-03-29T12:55:06.667Z,27.84
2019-03-29T12:56:10.260Z,28.10
2019-03-29T12:57:13.839Z,28.01
2019-03-29T12:58:17.299Z,27.42
2019-03-29T12:59:20.826Z,27.81
2019-03-29T13:00:24.352Z,27.44
2019-03-29T13:01:38.603Z,27.60
2019-03-29T13:02:34.718Z,27.38
2019-03-29T13:03:38.574Z,27.04
2019-03-29T13:04:42.028Z,26.66
2019-03-29T13:05:45.464Z,26.47
2019-03-29T13:06:48.909Z,26.07
2019-03-29T13:07:53.274Z,26.83
2019-03-29T13:08:56.775Z,26.53
2019-03-29T13:10:00.416Z,26.57
2019-03-29T13:11:03.932Z,26.77
2019-03-29T13:12:07.430Z,27.35
2019-03-29T13:13:10.871Z,28.00
2019-03-29T13:14:14.382Z,28.13
2019-03-29T13:15:17.890Z,27.77
2019-03-29T13:16:21.324Z,28.87
2019-03-29T13:17:24.881Z,28.62
2019-03-29T13:18:28.656Z,28.46
2019-03-29T13:19:32.188Z,27.13
2019-03-29T13:20:35.615Z,27.37
2019-03-29T13:21:39.065Z,27.14
2019-03-29T13:22:42.480Z,28.04
2019-03-29T13:23:45.916Z,27.91
2019-03-29T13:24:49.436Z,27.63
2019-03-29T13:25:52.945Z,26.83
2019-03-29T13:26:56.383Z,26.91
2019-03-29T13:27:59.833Z,26.74
2019-03-29T13:29:03.331Z,26.66
2019-03-29T13:30:08.594Z,27.29
2019-03-29T13:31:12.870Z,27.18
2019-03-29T13:32:16.324Z,27.58
2019-03-29T13:33:21.191Z,27.68
2019-03-29T13:34:24.664Z,27.01
2019-03-29T13:35:28.101Z,25.80
2019-03-29T13:36:31.609Z,25.81
2019-03-29T13:37:35.174Z,25.71
2019-03-29T13:38:38.678Z,25.77
2019-03-29T13:39:42.306Z,24.71